sensor_id;sensor_type;location;lat;lon;timestamp;pressure;altitude;pressure_sealevel;temperature;humidity
43934;BME280;59081;42.706;23.306;2023-04-01T00:00:28;94302.91;;;11.02;61.28
43934;BME280;59081;42.706;23.306;2023-04-01T00:02:53;94258.53;;;10.64;61.15
43934;BME280;59081;42.706;23.306;2023-04-01T00:05:19;94235.13;;;10.41;61.21
43934;BME280;59081;42.706;23.306;2023-04-01T00:07:45;94245.69;;;10.52;61.56
43934;BME280;59081;42.706;23.306;2023-04-01T00:10:12;94252.59;;;10.56;61.22
43934;BME280;59081;42.706;23.306;2023-04-01T00:12:38;94190.56;;;9.97;61.99
43934;BME280;59081;42.706;23.306;2023-04-01T00:15:07;94332.75;;;10.67;62.65
43934;BME280;59081;42.706;23.306;2023-04-01T00:17:35;94276.22;;;10.17;63.44
43934;BME280;59081;42.706;23.306;2023-04-01T00:20:00;94258.28;;;9.94;63.58
43934;BME280;59081;42.706;23.306;2023-04-01T00:22:27;94216.34;;;9.63;64.00
43934;BME280;59081;42.706;23.306;2023-04-01T00:24:53;94219.22;;;9.59;64.24
43934;BME280;59081;42.706;23.306;2023-04-01T00:27:19;94302.47;;;10.09;65.22
43934;BME280;59081;42.706;23.306;2023-04-01T00:29:46;94267.09;;;9.40;67.21
43934;BME280;59081;42.706;23.306;2023-04-01T00:32:13;94180.22;;;9.02;66.39
43934;BME280;59081;42.706;23.306;2023-04-01T00:34:39;94323.88;;;10.05;66.50
43934;BME280;59081;42.706;23.306;2023-04-01T00:37:07;94260.16;;;9.57;66.73
43934;BME280;59081;42.706;23.306;2023-04-01T00:39:34;94322.97;;;10.08;66.45
43934;BME280;59081;42.706;23.306;2023-04-01T00:42:00;94370.34;;;10.43;66.29
43934;BME280;59081;42.706;23.306;2023-04-01T00:44:29;94190.75;;;9.04;67.29
43934;BME280;59081;42.706;23.306;2023-04-01T00:46:55;94254.84;;;9.32;68.47
43934;BME280;59081;42.706;23.306;2023-04-01T00:49:33;94286.44;;;9.27;68.46
43934;BME280;59081;42.706;23.306;2023-04-01T00:52:02;94150.31;;;8.43;68.88
43934;BME280;59081;42.706;23.306;2023-04-01T00:54:32;94152.00;;;8.49;68.84
43934;BME280;59081;42.706;23.306;2023-04-01T00:57:25;94343.38;;;9.89;68.55
43934;BME280;59081;42.706;23.306;2023-04-01T00:59:54;94216.53;;;9.28;67.87
43934;BME280;59081;42.706;23.306;2023-04-01T01:02:22;94268.78;;;9.77;67.93
43934;BME280;59081;42.706;23.306;2023-04-01T01:04:48;94332.88;;;10.05;68.47
43934;BME280;59081;42.706;23.306;2023-04-01T01:07:26;94300.69;;;9.75;69.19
43934;BME280;59081;42.706;23.306;2023-04-01T01:15:37;94196.66;;;9.24;68.80
43934;BME280;59081;42.706;23.306;2023-04-01T01:18:09;94301.75;;;10.18;68.48
43934;BME280;59081;42.706;23.306;2023-04-01T01:20:58;94293.59;;;9.96;69.10
43934;BME280;59081;42.706;23.306;2023-04-01T01:23:51;94297.75;;;10.09;69.44
43934;BME280;59081;42.706;23.306;2023-04-01T01:26:48;94213.00;;;9.68;68.78
43934;BME280;59081;42.706;23.306;2023-04-01T01:32:25;94271.13;;;9.97;70.03
43934;BME280;59081;42.706;23.306;2023-04-01T01:35:21;94270.50;;;9.93;70.35
43934;BME280;59081;42.706;23.306;2023-04-01T01:37:51;94118.69;;;8.91;69.95
43934;BME280;59081;42.706;23.306;2023-04-01T01:40:18;94289.22;;;10.17;69.35
43934;BME280;59081;42.706;23.306;2023-04-01T01:42:50;94226.63;;;9.81;69.00
43934;BME280;59081;42.706;23.306;2023-04-01T01:45:19;94291.84;;;10.29;69.02
43934;BME280;59081;42.706;23.306;2023-04-01T01:47:47;94102.28;;;9.09;68.19
43934;BME280;59081;42.706;23.306;2023-04-01T01:50:15;94239.97;;;10.09;68.13
43934;BME280;59081;42.706;23.306;2023-04-01T01:52:40;94091.09;;;8.94;68.35
43934;BME280;59081;42.706;23.306;2023-04-01T01:55:27;94183.16;;;9.57;68.54
43934;BME280;59081;42.706;23.306;2023-04-01T01:57:56;94082.97;;;8.82;68.56
43934;BME280;59081;42.706;23.306;2023-04-01T02:00:24;94143.41;;;9.40;67.98
43934;BME280;59081;42.706;23.306;2023-04-01T02:02:50;94143.13;;;9.47;68.21
43934;BME280;59081;42.706;23.306;2023-04-01T02:05:26;94222.84;;;10.15;67.25
43934;BME280;59081;42.706;23.306;2023-04-01T02:10:40;94194.25;;;10.03;67.81
43934;BME280;59081;42.706;23.306;2023-04-01T02:13:24;94213.09;;;10.32;66.55
43934;BME280;59081;42.706;23.306;2023-04-01T02:15:58;94171.16;;;10.09;66.44
43934;BME280;59081;42.706;23.306;2023-04-01T02:18:25;94115.78;;;9.53;66.36
43934;BME280;59081;42.706;23.306;2023-04-01T02:20:51;94225.03;;;10.38;66.53
43934;BME280;59081;42.706;23.306;2023-04-01T02:23:17;94249.53;;;10.54;66.99
43934;BME280;59081;42.706;23.306;2023-04-01T02:25:43;94150.22;;;9.94;66.61
43934;BME280;59081;42.706;23.306;2023-04-01T02:28:12;94128.69;;;9.83;66.58
43934;BME280;59081;42.706;23.306;2023-04-01T02:30:42;94118.13;;;9.82;66.18
43934;BME280;59081;42.706;23.306;2023-04-01T02:33:09;94134.19;;;9.92;65.60
43934;BME280;59081;42.706;23.306;2023-04-01T02:35:36;94243.25;;;10.72;65.36
43934;BME280;59081;42.706;23.306;2023-04-01T02:38:02;94194.13;;;10.52;65.02
43934;BME280;59081;42.706;23.306;2023-04-01T02:40:28;94068.47;;;9.67;64.54
43934;BME280;59081;42.706;23.306;2023-04-01T02:42:53;94114.63;;;9.99;64.67
43934;BME280;59081;42.706;23.306;2023-04-01T02:45:19;94196.44;;;10.35;64.88
43934;BME280;59081;42.706;23.306;2023-04-01T02:47:45;94143.63;;;9.73;65.62
43934;BME280;59081;42.706;23.306;2023-04-01T02:50:11;94232.97;;;10.45;66.10
43934;BME280;59081;42.706;23.306;2023-04-01T02:52:36;94240.63;;;10.41;66.30
43934;BME280;59081;42.706;23.306;2023-04-01T02:55:02;94152.50;;;9.77;66.44
43934;BME280;59081;42.706;23.306;2023-04-01T02:57:28;94166.69;;;9.66;66.93
43934;BME280;59081;42.706;23.306;2023-04-01T02:59:54;94198.63;;;9.73;68.09
43934;BME280;59081;42.706;23.306;2023-04-01T03:02:20;94159.94;;;9.58;67.87
43934;BME280;59081;42.706;23.306;2023-04-01T03:04:45;94278.84;;;10.30;68.03
43934;BME280;59081;42.706;23.306;2023-04-01T03:07:11;94143.00;;;9.51;67.66
43934;BME280;59081;42.706;23.306;2023-04-01T03:09:37;94131.31;;;9.28;68.08
43934;BME280;59081;42.706;23.306;2023-04-01T03:12:02;94193.13;;;9.64;68.42
43934;BME280;59081;42.706;23.306;2023-04-01T03:14:28;94205.03;;;9.70;68.60
43934;BME280;59081;42.706;23.306;2023-04-01T03:16:53;94235.19;;;9.83;68.97
43934;BME280;59081;42.706;23.306;2023-04-01T03:19:20;94116.44;;;9.07;68.51
43934;BME280;59081;42.706;23.306;2023-04-01T03:21:45;94302.94;;;10.07;68.70
43934;BME280;59081;42.706;23.306;2023-04-01T03:24:11;94125.56;;;8.95;68.81
43934;BME280;59081;42.706;23.306;2023-04-01T03:26:36;94142.75;;;8.87;68.38
43934;BME280;59081;42.706;23.306;2023-04-01T03:29:02;94251.13;;;9.57;68.54
43934;BME280;59081;42.706;23.306;2023-04-01T03:31:27;94205.78;;;9.21;69.42
43934;BME280;59081;42.706;23.306;2023-04-01T03:33:53;94219.66;;;9.49;68.69
43934;BME280;59081;42.706;23.306;2023-04-01T03:36:19;94200.59;;;9.23;70.01
43934;BME280;59081;42.706;23.306;2023-04-01T03:38:44;94123.72;;;8.92;69.85
43934;BME280;59081;42.706;23.306;2023-04-01T03:41:15;94277.59;;;10.22;69.35
43934;BME280;59081;42.706;23.306;2023-04-01T03:43:41;94113.88;;;9.13;69.80
43934;BME280;59081;42.706;23.306;2023-04-01T03:46:06;94206.59;;;9.89;70.21
43934;BME280;59081;42.706;23.306;2023-04-01T03:48:32;94202.91;;;9.74;71.54
43934;BME280;59081;42.706;23.306;2023-04-01T03:50:58;94099.84;;;9.11;72.43
43934;BME280;59081;42.706;23.306;2023-04-01T03:53:23;94103.00;;;9.00;73.13
43934;BME280;59081;42.706;23.306;2023-04-01T03:55:50;94113.59;;;9.20;72.88
43934;BME280;59081;42.706;23.306;2023-04-01T03:58:17;94042.22;;;8.80;73.15
43934;BME280;59081;42.706;23.306;2023-04-01T04:00:43;94121.75;;;9.42;74.03
43934;BME280;59081;42.706;23.306;2023-04-01T04:03:08;94139.50;;;9.59;75.17
43934;BME280;59081;42.706;23.306;2023-04-01T04:05:34;94165.19;;;9.74;74.58
43934;BME280;59081;42.706;23.306;2023-04-01T04:08:00;94191.94;;;9.92;75.20
43934;BME280;59081;42.706;23.306;2023-04-01T04:10:26;94049.00;;;9.06;75.38
43934;BME280;59081;42.706;23.306;2023-04-01T04:12:52;94110.59;;;9.55;75.47
43934;BME280;59081;42.706;23.306;2023-04-01T04:15:17;94076.06;;;9.26;74.98
43934;BME280;59081;42.706;23.306;2023-04-01T04:17:46;93995.50;;;8.62;74.19
43934;BME280;59081;42.706;23.306;2023-04-01T04:20:12;94035.84;;;8.92;73.49
43934;BME280;59081;42.706;23.306;2023-04-01T04:22:40;94160.16;;;9.91;73.73
43934;BME280;59081;42.706;23.306;2023-04-01T04:25:06;94136.25;;;9.42;74.08
43934;BME280;59081;42.706;23.306;2023-04-01T04:27:33;94043.94;;;8.96;74.53
43934;BME280;59081;42.706;23.306;2023-04-01T04:29:58;94025.63;;;8.53;75.54
43934;BME280;59081;42.706;23.306;2023-04-01T04:32:24;94064.91;;;8.71;76.28
43934;BME280;59081;42.706;23.306;2023-04-01T04:34:49;94141.59;;;9.55;75.59
43934;BME280;59081;42.706;23.306;2023-04-01T04:37:15;94019.06;;;8.90;74.72
43934;BME280;59081;42.706;23.306;2023-04-01T04:39:40;94146.97;;;9.50;75.02
43934;BME280;59081;42.706;23.306;2023-04-01T04:42:06;94018.03;;;8.57;73.96
43934;BME280;59081;42.706;23.306;2023-04-01T04:44:31;94065.03;;;9.08;73.20
43934;BME280;59081;42.706;23.306;2023-04-01T04:46:57;94014.84;;;8.58;74.25
43934;BME280;59081;42.706;23.306;2023-04-01T04:49:22;94069.75;;;9.07;73.04
43934;BME280;59081;42.706;23.306;2023-04-01T04:51:50;94051.56;;;9.01;73.15
43934;BME280;59081;42.706;23.306;2023-04-01T04:54:17;94130.66;;;9.64;72.62
43934;BME280;59081;42.706;23.306;2023-04-01T04:56:42;93959.34;;;8.63;73.17
43934;BME280;59081;42.706;23.306;2023-04-01T04:59:08;93927.09;;;8.36;73.23
43934;BME280;59081;42.706;23.306;2023-04-01T05:01:34;93952.56;;;8.37;72.07
43934;BME280;59081;42.706;23.306;2023-04-01T05:03:59;93964.97;;;8.60;71.60
43934;BME280;59081;42.706;23.306;2023-04-01T05:06:27;93987.44;;;8.86;70.38
43934;BME280;59081;42.706;23.306;2023-04-01T05:08:55;94071.34;;;9.54;70.94
43934;BME280;59081;42.706;23.306;2023-04-01T05:11:21;94061.44;;;9.66;73.86
43934;BME280;59081;42.706;23.306;2023-04-01T05:13:47;94096.25;;;9.87;71.70
43934;BME280;59081;42.706;23.306;2023-04-01T05:16:15;94019.28;;;9.51;71.14
43934;BME280;59081;42.706;23.306;2023-04-01T05:18:41;93919.09;;;8.69;69.77
43934;BME280;59081;42.706;23.306;2023-04-01T05:21:08;94099.97;;;9.84;69.84
43934;BME280;59081;42.706;23.306;2023-04-01T05:23:34;94050.16;;;9.64;68.94
43934;BME280;59081;42.706;23.306;2023-04-01T05:26:10;93938.38;;;8.97;69.07
43934;BME280;59081;42.706;23.306;2023-04-01T05:28:36;93894.72;;;8.90;69.98
43934;BME280;59081;42.706;23.306;2023-04-01T05:31:02;93942.94;;;9.18;70.03
43934;BME280;59081;42.706;23.306;2023-04-01T05:33:29;94010.44;;;9.65;70.00
43934;BME280;59081;42.706;23.306;2023-04-01T05:35:55;93865.38;;;8.41;69.68
43934;BME280;59081;42.706;23.306;2023-04-01T05:38:21;93896.38;;;8.60;70.46
43934;BME280;59081;42.706;23.306;2023-04-01T05:40:46;94040.97;;;9.85;69.04
43934;BME280;59081;42.706;23.306;2023-04-01T05:43:12;93936.06;;;9.23;68.86
43934;BME280;59081;42.706;23.306;2023-04-01T05:45:38;94011.16;;;10.02;67.90
43934;BME280;59081;42.706;23.306;2023-04-01T05:48:03;93922.31;;;9.50;67.27
43934;BME280;59081;42.706;23.306;2023-04-01T05:50:29;93919.06;;;9.70;66.70
43934;BME280;59081;42.706;23.306;2023-04-01T05:52:55;93928.75;;;10.07;64.50
43934;BME280;59081;42.706;23.306;2023-04-01T05:55:20;93957.38;;;10.43;62.17
43934;BME280;59081;42.706;23.306;2023-04-01T05:57:46;94004.31;;;10.81;62.23
43934;BME280;59081;42.706;23.306;2023-04-01T06:00:14;93956.59;;;10.52;61.02
43934;BME280;59081;42.706;23.306;2023-04-01T06:02:39;94027.69;;;11.19;60.50
43934;BME280;59081;42.706;23.306;2023-04-01T06:05:42;94059.13;;;11.84;59.06
43934;BME280;59081;42.706;23.306;2023-04-01T06:08:27;94054.16;;;12.12;58.36
43934;BME280;59081;42.706;23.306;2023-04-01T06:24:48;94062.75;;;12.43;55.26
43934;BME280;59081;42.706;23.306;2023-04-01T06:41:09;94059.78;;;12.76;53.96
43934;BME280;59081;42.706;23.306;2023-04-01T06:46:45;94041.69;;;12.46;55.44
43934;BME280;59081;42.706;23.306;2023-04-01T06:49:33;94039.31;;;12.39;55.35
43934;BME280;59081;42.706;23.306;2023-04-01T06:54:33;93898.78;;;11.67;56.06
43934;BME280;59081;42.706;23.306;2023-04-01T06:59:51;93814.78;;;11.09;56.97
43934;BME280;59081;42.706;23.306;2023-04-01T07:05:13;93894.50;;;11.66;56.79
43934;BME280;59081;42.706;23.306;2023-04-01T07:07:54;93950.78;;;12.28;56.37
43934;BME280;59081;42.706;23.306;2023-04-01T07:10:47;94002.56;;;12.82;56.37
43934;BME280;59081;42.706;23.306;2023-04-01T07:13:24;93951.41;;;12.37;56.99
43934;BME280;59081;42.706;23.306;2023-04-01T07:18:32;94005.22;;;12.92;57.26
43934;BME280;59081;42.706;23.306;2023-04-01T07:21:00;94006.34;;;13.00;57.31
43934;BME280;59081;42.706;23.306;2023-04-01T07:23:31;93949.06;;;12.65;57.41
43934;BME280;59081;42.706;23.306;2023-04-01T07:26:25;93951.59;;;12.83;57.25
43934;BME280;59081;42.706;23.306;2023-04-01T07:28:53;93981.25;;;13.03;57.54
43934;BME280;59081;42.706;23.306;2023-04-01T07:31:30;94004.09;;;13.33;57.42
43934;BME280;59081;42.706;23.306;2023-04-01T07:34:11;93917.44;;;12.66;56.96
43934;BME280;59081;42.706;23.306;2023-04-01T07:36:45;93873.63;;;12.39;56.84
43934;BME280;59081;42.706;23.306;2023-04-01T08:01:04;93917.78;;;13.29;55.31
43934;BME280;59081;42.706;23.306;2023-04-01T08:06:24;93879.75;;;13.04;54.97
43934;BME280;59081;42.706;23.306;2023-04-01T08:14:54;93973.78;;;13.90;55.40
43934;BME280;59081;42.706;23.306;2023-04-01T08:20:18;93884.50;;;13.44;55.65
43934;BME280;59081;42.706;23.306;2023-04-01T08:25:32;93808.03;;;13.15;55.29
43934;BME280;59081;42.706;23.306;2023-04-01T08:28:13;93912.47;;;13.72;54.91
43934;BME280;59081;42.706;23.306;2023-04-01T08:33:17;93909.94;;;14.25;54.34
43934;BME280;59081;42.706;23.306;2023-04-01T08:35:50;93915.47;;;14.57;53.94
43934;BME280;59081;42.706;23.306;2023-04-01T09:12:56;93871.81;;;18.15;39.36
43934;BME280;59081;42.706;23.306;2023-04-01T09:18:29;93876.78;;;17.86;39.74
43934;BME280;59081;42.706;23.306;2023-04-01T09:35:38;93757.25;;;17.12;38.87
43934;BME280;59081;42.706;23.306;2023-04-01T09:43:45;93841.16;;;17.79;38.86
43934;BME280;59081;42.706;23.306;2023-04-01T09:52:24;93820.13;;;18.14;38.42
43934;BME280;59081;42.706;23.306;2023-04-01T09:55:40;93815.47;;;18.22;38.11
43934;BME280;59081;42.706;23.306;2023-04-01T09:58:33;93797.84;;;18.14;38.50
43934;BME280;59081;42.706;23.306;2023-04-01T10:31:30;93760.25;;;17.96;36.91
43934;BME280;59081;42.706;23.306;2023-04-01T10:56:51;93730.69;;;16.47;42.51
43934;BME280;59081;42.706;23.306;2023-04-01T11:20:56;93706.22;;;16.40;42.56
43934;BME280;59081;42.706;23.306;2023-04-01T11:23:53;93611.44;;;15.80;42.34
43934;BME280;59081;42.706;23.306;2023-04-01T11:32:20;93767.09;;;16.44;42.88
43934;BME280;59081;42.706;23.306;2023-04-01T11:37:54;93777.97;;;15.47;47.54
43934;BME280;59081;42.706;23.306;2023-04-01T11:40:31;93685.41;;;14.35;51.31
43934;BME280;59081;42.706;23.306;2023-04-01T11:49:24;93767.13;;;12.17;72.15
43934;BME280;59081;42.706;23.306;2023-04-01T12:14:35;93955.44;;;11.77;88.27
43934;BME280;59081;42.706;23.306;2023-04-01T12:19:48;93935.06;;;11.90;91.56
43934;BME280;59081;42.706;23.306;2023-04-01T12:25:46;93801.66;;;11.04;89.88
43934;BME280;59081;42.706;23.306;2023-04-01T12:31:25;93922.34;;;11.54;90.50
43934;BME280;59081;42.706;23.306;2023-04-01T12:45:35;93952.59;;;11.48;94.22
43934;BME280;59081;42.706;23.306;2023-04-01T13:02:09;93766.03;;;10.48;95.64
43934;BME280;59081;42.706;23.306;2023-04-01T13:07:39;93831.81;;;11.08;93.24
43934;BME280;59081;42.706;23.306;2023-04-01T13:29:13;93756.91;;;11.54;88.21
43934;BME280;59081;42.706;23.306;2023-04-01T13:34:08;93862.75;;;12.70;87.90
43934;BME280;59081;42.706;23.306;2023-04-01T13:42:49;93828.56;;;15.14;72.46
43934;BME280;59081;42.706;23.306;2023-04-01T13:45:24;93729.47;;;15.09;65.12
43934;BME280;59081;42.706;23.306;2023-04-01T13:50:57;93713.75;;;16.45;56.41
43934;BME280;59081;42.706;23.306;2023-04-01T13:53:51;93755.13;;;16.77;55.77
43934;BME280;59081;42.706;23.306;2023-04-01T13:59:01;93805.28;;;18.30;50.15
43934;BME280;59081;42.706;23.306;2023-04-01T14:06:56;93783.31;;;17.03;50.07
43934;BME280;59081;42.706;23.306;2023-04-01T14:12:17;93753.66;;;17.58;45.73
43934;BME280;59081;42.706;23.306;2023-04-01T14:17:50;93797.16;;;18.32;44.66
43934;BME280;59081;42.706;23.306;2023-04-01T14:20:27;93791.47;;;19.16;42.92
43934;BME280;59081;42.706;23.306;2023-04-01T14:26:01;93705.22;;;18.26;45.23
43934;BME280;59081;42.706;23.306;2023-04-01T14:34:05;93758.34;;;17.80;57.71
43934;BME280;59081;42.706;23.306;2023-04-01T14:36:57;93723.78;;;17.94;56.06
43934;BME280;59081;42.706;23.306;2023-04-01T14:50:29;93697.09;;;18.28;53.32
43934;BME280;59081;42.706;23.306;2023-04-01T14:55:46;93667.25;;;17.99;52.74
43934;BME280;59081;42.706;23.306;2023-04-01T14:58:15;93690.91;;;18.17;52.36
43934;BME280;59081;42.706;23.306;2023-04-01T15:01:11;93769.69;;;18.17;53.75
43934;BME280;59081;42.706;23.306;2023-04-01T15:06:45;93723.66;;;16.29;59.46
43934;BME280;59081;42.706;23.306;2023-04-01T15:09:21;93771.09;;;16.54;59.53
43934;BME280;59081;42.706;23.306;2023-04-01T15:20:29;93780.69;;;15.30;63.24
43934;BME280;59081;42.706;23.306;2023-04-01T15:23:13;93784.97;;;15.20;64.03
43934;BME280;59081;42.706;23.306;2023-04-01T15:32:00;93636.16;;;13.59;65.62
43934;BME280;59081;42.706;23.306;2023-04-01T15:34:50;93659.22;;;13.82;65.09
43934;BME280;59081;42.706;23.306;2023-04-01T15:37:40;93793.13;;;14.27;66.80
43934;BME280;59081;42.706;23.306;2023-04-01T15:40:23;93790.28;;;14.53;65.72
43934;BME280;59081;42.706;23.306;2023-04-01T15:51:54;93716.78;;;9.78;70.85
43934;BME280;59081;42.706;23.306;2023-04-01T15:57:19;93919.91;;;9.94;76.75
43934;BME280;59081;42.706;23.306;2023-04-01T16:06:22;94019.44;;;9.29;90.81
43934;BME280;59081;42.706;23.306;2023-04-01T16:20:13;94008.91;;;7.76;100.00
43934;BME280;59081;42.706;23.306;2023-04-01T16:22:52;94027.69;;;7.65;100.00
43934;BME280;59081;42.706;23.306;2023-04-01T16:28:12;93911.66;;;7.15;100.00
43934;BME280;59081;42.706;23.306;2023-04-01T16:30:45;93941.41;;;7.04;100.00
43934;BME280;59081;42.706;23.306;2023-04-01T16:38:39;93940.44;;;6.98;100.00
43934;BME280;59081;42.706;23.306;2023-04-01T16:41:14;93948.47;;;6.92;100.00
43934;BME280;59081;42.706;23.306;2023-04-01T16:46:34;94084.78;;;8.01;100.00
43934;BME280;59081;42.706;23.306;2023-04-01T16:49:05;94019.94;;;7.42;100.00
43934;BME280;59081;42.706;23.306;2023-04-01T16:51:52;93996.97;;;7.26;100.00
43934;BME280;59081;42.706;23.306;2023-04-01T16:56:56;94027.06;;;7.39;98.63
43934;BME280;59081;42.706;23.306;2023-04-01T17:02:31;93985.28;;;7.13;98.41
43934;BME280;59081;42.706;23.306;2023-04-01T17:05:09;94024.81;;;7.47;97.27
43934;BME280;59081;42.706;23.306;2023-04-01T17:15:48;94032.81;;;7.19;96.85
43934;BME280;59081;42.706;23.306;2023-04-01T17:23:51;94056.94;;;7.12;95.45
43934;BME280;59081;42.706;23.306;2023-04-01T17:26:46;94147.69;;;7.83;94.33
43934;BME280;59081;42.706;23.306;2023-04-01T17:32:11;94099.16;;;7.36;96.02
43934;BME280;59081;42.706;23.306;2023-04-01T17:35:04;94001.19;;;6.46;98.16
43934;BME280;59081;42.706;23.306;2023-04-01T17:37:45;94115.19;;;7.72;96.93
43934;BME280;59081;42.706;23.306;2023-04-01T17:45:32;94058.28;;;6.82;99.38
43934;BME280;59081;42.706;23.306;2023-04-01T17:51:07;94165.78;;;7.46;100.00
43934;BME280;59081;42.706;23.306;2023-04-01T17:56:49;94177.13;;;7.69;95.98
43934;BME280;59081;42.706;23.306;2023-04-01T17:59:36;94180.91;;;7.38;95.59
43934;BME280;59081;42.706;23.306;2023-04-01T18:07:39;94064.13;;;6.46;94.19
43934;BME280;59081;42.706;23.306;2023-04-01T18:10:20;94102.44;;;6.71;93.30
43934;BME280;59081;42.706;23.306;2023-04-01T18:21:43;94226.50;;;7.19;95.70
43934;BME280;59081;42.706;23.306;2023-04-01T18:24:18;94142.81;;;6.54;96.20
43934;BME280;59081;42.706;23.306;2023-04-01T18:27:02;94224.63;;;7.28;96.84
43934;BME280;59081;42.706;23.306;2023-04-01T18:29:54;94213.25;;;7.30;94.42
43934;BME280;59081;42.706;23.306;2023-04-01T18:32:35;94005.59;;;5.76;95.10
43934;BME280;59081;42.706;23.306;2023-04-01T18:38:12;94163.97;;;6.92;94.91
43934;BME280;59081;42.706;23.306;2023-04-01T18:49:11;94217.84;;;7.33;95.02
43934;BME280;59081;42.706;23.306;2023-04-01T18:51:54;94107.00;;;6.49;94.93
43934;BME280;59081;42.706;23.306;2023-04-01T18:54:33;94207.09;;;7.13;95.08
43934;BME280;59081;42.706;23.306;2023-04-01T18:57:13;94184.34;;;6.91;94.14
43934;BME280;59081;42.706;23.306;2023-04-01T18:59:39;94189.59;;;7.23;92.42
43934;BME280;59081;42.706;23.306;2023-04-01T19:05:14;94246.78;;;7.34;92.16
43934;BME280;59081;42.706;23.306;2023-04-01T19:07:51;94199.09;;;6.93;92.48
43934;BME280;59081;42.706;23.306;2023-04-01T19:10:37;94176.00;;;7.07;90.21
43934;BME280;59081;42.706;23.306;2023-04-01T19:16:04;94159.69;;;6.91;90.13
43934;BME280;59081;42.706;23.306;2023-04-01T19:26:11;94201.41;;;7.33;90.06
43934;BME280;59081;42.706;23.306;2023-04-01T19:29:17;94259.59;;;7.50;90.63
43934;BME280;59081;42.706;23.306;2023-04-01T19:37:39;94273.97;;;7.54;87.66
43934;BME280;59081;42.706;23.306;2023-04-01T19:43:02;94290.25;;;7.83;85.53
43934;BME280;59081;42.706;23.306;2023-04-01T19:48:37;94285.56;;;7.58;85.32
43934;BME280;59081;42.706;23.306;2023-04-01T19:51:37;94161.31;;;6.63;85.44
43934;BME280;59081;42.706;23.306;2023-04-01T19:59:48;94288.00;;;7.56;84.17
43934;BME280;59081;42.706;23.306;2023-04-01T20:02:31;94294.75;;;7.64;83.82
43934;BME280;59081;42.706;23.306;2023-04-01T20:05:10;94176.00;;;6.94;82.46
43934;BME280;59081;42.706;23.306;2023-04-01T20:07:44;94284.47;;;7.55;82.81
43934;BME280;59081;42.706;23.306;2023-04-01T20:10:19;94012.13;;;5.53;82.73
43934;BME280;59081;42.706;23.306;2023-04-01T20:15:36;94165.19;;;6.91;81.22
43934;BME280;59081;42.706;23.306;2023-04-01T20:18:17;94109.41;;;6.34;82.58
43934;BME280;59081;42.706;23.306;2023-04-01T20:26:41;94039.53;;;5.91;81.38
43934;BME280;59081;42.706;23.306;2023-04-01T20:44:10;94324.72;;;7.58;80.31
43934;BME280;59081;42.706;23.306;2023-04-01T20:46:45;94301.56;;;7.47;78.98
43934;BME280;59081;42.706;23.306;2023-04-01T20:51:58;94183.50;;;6.40;79.74
43934;BME280;59081;42.706;23.306;2023-04-01T20:54:55;94325.16;;;7.57;79.56
43934;BME280;59081;42.706;23.306;2023-04-01T21:00:42;94192.94;;;6.51;80.16
43934;BME280;59081;42.706;23.306;2023-04-01T21:11:31;94109.41;;;5.92;80.19
43934;BME280;59081;42.706;23.306;2023-04-01T21:14:24;94214.38;;;6.53;79.81
43934;BME280;59081;42.706;23.306;2023-04-01T21:17:33;94144.09;;;6.37;78.23
43934;BME280;59081;42.706;23.306;2023-04-01T21:30:54;94289.25;;;7.13;78.22
43934;BME280;59081;42.706;23.306;2023-04-01T21:33:43;94194.66;;;6.45;77.06
43934;BME280;59081;42.706;23.306;2023-04-01T21:39:27;94276.56;;;7.45;74.90
43934;BME280;59081;42.706;23.306;2023-04-01T21:44:45;94337.84;;;7.51;76.70
43934;BME280;59081;42.706;23.306;2023-04-01T22:09:52;94323.06;;;7.61;75.90
43934;BME280;59081;42.706;23.306;2023-04-01T22:12:40;94110.59;;;5.91;76.91
43934;BME280;59081;42.706;23.306;2023-04-01T22:15:12;94240.09;;;6.55;78.38
43934;BME280;59081;42.706;23.306;2023-04-01T22:17:54;94234.50;;;6.59;78.88
43934;BME280;59081;42.706;23.306;2023-04-01T22:20:35;94195.59;;;6.68;76.78
43934;BME280;59081;42.706;23.306;2023-04-01T22:28:35;94340.34;;;7.32;78.70
43934;BME280;59081;42.706;23.306;2023-04-01T22:31:03;94098.22;;;5.87;77.78
43934;BME280;59081;42.706;23.306;2023-04-01T22:33:32;94334.88;;;7.20;78.82
43934;BME280;59081;42.706;23.306;2023-04-01T22:39:47;94337.59;;;7.07;79.90
43934;BME280;59081;42.706;23.306;2023-04-01T22:53:25;94244.13;;;6.51;75.96
43934;BME280;59081;42.706;23.306;2023-04-01T22:55:59;94200.09;;;6.04;77.25
43934;BME280;59081;42.706;23.306;2023-04-01T22:58:35;94290.00;;;6.59;76.33
43934;BME280;59081;42.706;23.306;2023-04-01T23:01:08;94254.88;;;6.29;76.68
43934;BME280;59081;42.706;23.306;2023-04-01T23:03:40;94246.22;;;6.59;75.58
43934;BME280;59081;42.706;23.306;2023-04-01T23:06:09;94133.72;;;5.58;76.04
43934;BME280;59081;42.706;23.306;2023-04-01T23:09:10;94365.41;;;7.06;76.21
43934;BME280;59081;42.706;23.306;2023-04-01T23:11:53;94330.91;;;7.08;76.04
43934;BME280;59081;42.706;23.306;2023-04-01T23:17:09;94218.91;;;6.02;76.48
43934;BME280;59081;42.706;23.306;2023-04-01T23:27:40;94229.94;;;5.98;76.25
43934;BME280;59081;42.706;23.306;2023-04-01T23:33:29;94239.06;;;6.37;74.46
43934;BME280;59081;42.706;23.306;2023-04-01T23:36:13;94254.44;;;6.59;74.30
43934;BME280;59081;42.706;23.306;2023-04-01T23:38:42;94222.59;;;6.53;73.93
43934;BME280;59081;42.706;23.306;2023-04-01T23:41:23;94293.75;;;7.07;73.49
43934;BME280;59081;42.706;23.306;2023-04-01T23:44:03;94157.41;;;6.22;72.27
43934;BME280;59081;42.706;23.306;2023-04-01T23:46:32;94214.16;;;6.60;72.19
43934;BME280;59081;42.706;23.306;2023-04-01T23:49:00;94291.72;;;7.24;72.12
43934;BME280;59081;42.706;23.306;2023-04-01T23:51:28;94224.72;;;6.87;71.12
43934;BME280;59081;42.706;23.306;2023-04-01T23:54:14;94364.63;;;7.85;70.56
43934;BME280;59081;42.706;23.306;2023-04-01T23:56:51;94295.97;;;7.38;70.35